Richland, Washington
Current Conditions -  °F | °C
As of 2:53 AM on Tuesday 21 Oct 2014 (Local Time) from KPSC Reporting Station
Clear Clear  
Wind Chill: 53°   Ceiling: Unl
Heat Index: 53°   Visibility: 10mi
Dew Point: 49°   Wind: 10mph
Humidity: 86%   Direction: 250°WSW
Pressure: 29.84"   Gusts: NA
Location:  46.27°N, 119.27°W
Report Text: KPSC 210953Z AUTO 25009KT 10SM CLR 12/09 A2984 RMK AO2 SLP104 T01170094
Loading
Personal Weather Stations






























Interactive Weather Map
Tropical Storm Tracking
New forecast layout! Learn more

10-Day Weather Forecast

Advertisements
Track Severe Weather on mobile